sensor_id;sensor_type;location;lat;lon;timestamp;P1;durP1;ratioP1;P2;durP2;ratioP2
68010;SDS011;54794;48.348;7.878;2022-11-20T00:01:21;2.55;;;0.70;;
68010;SDS011;54794;48.348;7.878;2022-11-20T00:03:52;2.28;;;0.70;;
68010;SDS011;54794;48.348;7.878;2022-11-20T00:06:22;1.02;;;0.75;;
68010;SDS011;54794;48.348;7.878;2022-11-20T00:08:50;1.65;;;0.90;;
68010;SDS011;54794;48.348;7.878;2022-11-20T00:11:22;2.25;;;1.20;;
68010;SDS011;54794;48.348;7.878;2022-11-20T00:13:52;1.08;;;0.88;;
68010;SDS011;54794;48.348;7.878;2022-11-20T00:16:23;1.67;;;0.98;;
68010;SDS011;54794;48.348;7.878;2022-11-20T00:18:52;0.93;;;0.70;;
68010;SDS011;54794;48.348;7.878;2022-11-20T00:21:23;1.52;;;1.00;;
68010;SDS011;54794;48.348;7.878;2022-11-20T00:23:54;1.52;;;0.80;;
68010;SDS011;54794;48.348;7.878;2022-11-20T00:26:23;1.30;;;0.88;;
68010;SDS011;54794;48.348;7.878;2022-11-20T00:28:53;1.30;;;0.80;;
68010;SDS011;54794;48.348;7.878;2022-11-20T00:31:25;2.08;;;0.95;;
68010;SDS011;54794;48.348;7.878;2022-11-20T00:33:53;1.70;;;0.93;;
68010;SDS011;54794;48.348;7.878;2022-11-20T00:36:24;2.08;;;0.90;;
68010;SDS011;54794;48.348;7.878;2022-11-20T00:38:54;0.88;;;0.68;;
68010;SDS011;54794;48.348;7.878;2022-11-20T00:41:24;1.63;;;0.80;;
68010;SDS011;54794;48.348;7.878;2022-11-20T00:43:53;1.27;;;0.82;;
68010;SDS011;54794;48.348;7.878;2022-11-20T00:46:22;1.30;;;0.90;;
68010;SDS011;54794;48.348;7.878;2022-11-20T00:48:52;1.30;;;1.00;;
68010;SDS011;54794;48.348;7.878;2022-11-20T00:51:20;1.98;;;1.17;;
68010;SDS011;54794;48.348;7.878;2022-11-20T00:53:51;1.52;;;1.10;;
68010;SDS011;54794;48.348;7.878;2022-11-20T00:56:18;2.30;;;1.00;;
68010;SDS011;54794;48.348;7.878;2022-11-20T00:58:46;1.92;;;1.20;;
68010;SDS011;54794;48.348;7.878;2022-11-20T01:01:16;1.65;;;1.00;;
68010;SDS011;54794;48.348;7.878;2022-11-20T01:03:53;1.23;;;0.80;;
68010;SDS011;54794;48.348;7.878;2022-11-20T01:06:26;1.63;;;1.00;;
68010;SDS011;54794;48.348;7.878;2022-11-20T01:08:57;2.40;;;1.13;;
68010;SDS011;54794;48.348;7.878;2022-11-20T01:11:27;1.15;;;0.77;;
68010;SDS011;54794;48.348;7.878;2022-11-20T01:13:58;1.70;;;1.02;;
68010;SDS011;54794;48.348;7.878;2022-11-20T01:16:31;1.65;;;1.02;;
68010;SDS011;54794;48.348;7.878;2022-11-20T01:19:03;1.80;;;1.00;;
68010;SDS011;54794;48.348;7.878;2022-11-20T01:21:35;1.48;;;0.93;;
68010;SDS011;54794;48.348;7.878;2022-11-20T01:24:05;1.85;;;1.30;;
68010;SDS011;54794;48.348;7.878;2022-11-20T01:26:35;1.80;;;1.05;;
68010;SDS011;54794;48.348;7.878;2022-11-20T01:29:04;1.48;;;0.88;;
68010;SDS011;54794;48.348;7.878;2022-11-20T01:31:33;3.00;;;0.90;;
68010;SDS011;54794;48.348;7.878;2022-11-20T01:34:06;1.67;;;1.02;;
68010;SDS011;54794;48.348;7.878;2022-11-20T01:36:38;1.63;;;1.00;;
68010;SDS011;54794;48.348;7.878;2022-11-20T01:39:10;1.70;;;0.90;;
68010;SDS011;54794;48.348;7.878;2022-11-20T01:41:41;1.27;;;0.90;;
68010;SDS011;54794;48.348;7.878;2022-11-20T01:44:43;1.20;;;0.75;;
68010;SDS011;54794;48.348;7.878;2022-11-20T01:50:11;2.55;;;0.80;;
68010;SDS011;54794;48.348;7.878;2022-11-20T01:52:45;1.85;;;0.80;;
68010;SDS011;54794;48.348;7.878;2022-11-20T01:55:34;1.00;;;0.85;;
68010;SDS011;54794;48.348;7.878;2022-11-20T01:58:07;1.33;;;0.80;;
68010;SDS011;54794;48.348;7.878;2022-11-20T02:00:35;1.17;;;0.65;;
68010;SDS011;54794;48.348;7.878;2022-11-20T02:03:12;2.42;;;0.75;;
68010;SDS011;54794;48.348;7.878;2022-11-20T02:08:27;0.98;;;0.80;;
68010;SDS011;54794;48.348;7.878;2022-11-20T02:10:56;2.55;;;0.90;;
68010;SDS011;54794;48.348;7.878;2022-11-20T02:13:23;1.40;;;0.90;;
68010;SDS011;54794;48.348;7.878;2022-11-20T02:16:16;1.38;;;0.80;;
68010;SDS011;54794;48.348;7.878;2022-11-20T02:18:47;1.25;;;0.80;;
68010;SDS011;54794;48.348;7.878;2022-11-20T02:26:48;1.02;;;0.73;;
68010;SDS011;54794;48.348;7.878;2022-11-20T02:29:23;1.58;;;0.90;;
68010;SDS011;54794;48.348;7.878;2022-11-20T02:32:22;1.08;;;0.70;;
68010;SDS011;54794;48.348;7.878;2022-11-20T02:34:53;0.90;;;0.60;;
68010;SDS011;54794;48.348;7.878;2022-11-20T02:37:21;1.13;;;0.80;;
68010;SDS011;54794;48.348;7.878;2022-11-20T02:39:49;0.88;;;0.70;;
68010;SDS011;54794;48.348;7.878;2022-11-20T02:42:18;2.42;;;0.80;;
68010;SDS011;54794;48.348;7.878;2022-11-20T02:44:45;2.10;;;0.80;;
68010;SDS011;54794;48.348;7.878;2022-11-20T02:47:12;2.20;;;0.67;;
68010;SDS011;54794;48.348;7.878;2022-11-20T02:49:39;1.10;;;0.90;;
68010;SDS011;54794;48.348;7.878;2022-11-20T02:52:06;0.80;;;0.65;;
68010;SDS011;54794;48.348;7.878;2022-11-20T02:54:32;1.30;;;0.68;;
68010;SDS011;54794;48.348;7.878;2022-11-20T02:56:59;1.85;;;0.73;;
68010;SDS011;54794;48.348;7.878;2022-11-20T02:59:26;0.95;;;0.70;;
68010;SDS011;54794;48.348;7.878;2022-11-20T03:01:53;0.82;;;0.70;;
68010;SDS011;54794;48.348;7.878;2022-11-20T03:04:20;0.98;;;0.52;;
68010;SDS011;54794;48.348;7.878;2022-11-20T03:06:47;1.00;;;0.60;;
68010;SDS011;54794;48.348;7.878;2022-11-20T03:09:13;1.03;;;0.60;;
68010;SDS011;54794;48.348;7.878;2022-11-20T03:11:40;0.70;;;0.50;;
68010;SDS011;54794;48.348;7.878;2022-11-20T03:14:07;1.13;;;0.83;;
68010;SDS011;54794;48.348;7.878;2022-11-20T03:16:34;1.02;;;0.60;;
68010;SDS011;54794;48.348;7.878;2022-11-20T03:19:01;1.83;;;1.00;;
68010;SDS011;54794;48.348;7.878;2022-11-20T03:21:28;1.10;;;0.60;;
68010;SDS011;54794;48.348;7.878;2022-11-20T03:23:55;1.58;;;0.75;;
68010;SDS011;54794;48.348;7.878;2022-11-20T03:26:23;1.52;;;0.60;;
68010;SDS011;54794;48.348;7.878;2022-11-20T03:28:53;1.33;;;0.75;;
68010;SDS011;54794;48.348;7.878;2022-11-20T03:31:27;0.85;;;0.63;;
68010;SDS011;54794;48.348;7.878;2022-11-20T03:33:57;1.77;;;0.80;;
68010;SDS011;54794;48.348;7.878;2022-11-20T03:36:25;1.27;;;0.98;;
68010;SDS011;54794;48.348;7.878;2022-11-20T03:38:54;1.05;;;0.80;;
68010;SDS011;54794;48.348;7.878;2022-11-20T03:41:26;1.65;;;0.75;;
68010;SDS011;54794;48.348;7.878;2022-11-20T03:43:59;1.70;;;0.80;;
68010;SDS011;54794;48.348;7.878;2022-11-20T03:46:29;1.80;;;0.90;;
68010;SDS011;54794;48.348;7.878;2022-11-20T03:48:56;3.08;;;1.08;;
68010;SDS011;54794;48.348;7.878;2022-11-20T03:51:26;2.10;;;1.08;;
68010;SDS011;54794;48.348;7.878;2022-11-20T03:53:56;1.88;;;0.85;;
68010;SDS011;54794;48.348;7.878;2022-11-20T03:56:27;1.25;;;0.90;;
68010;SDS011;54794;48.348;7.878;2022-11-20T03:58:58;0.77;;;0.68;;
68010;SDS011;54794;48.348;7.878;2022-11-20T04:01:26;2.25;;;0.90;;
68010;SDS011;54794;48.348;7.878;2022-11-20T04:03:57;1.60;;;0.77;;
68010;SDS011;54794;48.348;7.878;2022-11-20T04:06:33;1.02;;;0.70;;
68010;SDS011;54794;48.348;7.878;2022-11-20T04:09:03;2.05;;;0.93;;
68010;SDS011;54794;48.348;7.878;2022-11-20T04:11:32;2.08;;;0.90;;
68010;SDS011;54794;48.348;7.878;2022-11-20T04:14:03;1.65;;;0.73;;
68010;SDS011;54794;48.348;7.878;2022-11-20T04:16:33;1.05;;;0.77;;
68010;SDS011;54794;48.348;7.878;2022-11-20T04:19:03;0.90;;;0.73;;
68010;SDS011;54794;48.348;7.878;2022-11-20T04:21:33;2.00;;;0.98;;
68010;SDS011;54794;48.348;7.878;2022-11-20T04:24:00;1.40;;;0.73;;
68010;SDS011;54794;48.348;7.878;2022-11-20T04:26:28;1.15;;;0.88;;
68010;SDS011;54794;48.348;7.878;2022-11-20T04:28:56;1.65;;;0.73;;
68010;SDS011;54794;48.348;7.878;2022-11-20T04:31:28;0.60;;;0.60;;
68010;SDS011;54794;48.348;7.878;2022-11-20T04:34:02;2.88;;;0.90;;
68010;SDS011;54794;48.348;7.878;2022-11-20T04:36:32;2.20;;;0.90;;
68010;SDS011;54794;48.348;7.878;2022-11-20T04:39:03;1.45;;;1.00;;
68010;SDS011;54794;48.348;7.878;2022-11-20T04:41:33;1.30;;;0.93;;
68010;SDS011;54794;48.348;7.878;2022-11-20T04:44:03;1.25;;;0.80;;
68010;SDS011;54794;48.348;7.878;2022-11-20T04:46:33;1.88;;;0.90;;
68010;SDS011;54794;48.348;7.878;2022-11-20T04:49:06;0.90;;;0.70;;
68010;SDS011;54794;48.348;7.878;2022-11-20T04:51:34;0.90;;;0.63;;
68010;SDS011;54794;48.348;7.878;2022-11-20T04:54:01;1.20;;;0.90;;
68010;SDS011;54794;48.348;7.878;2022-11-20T04:56:28;0.88;;;0.73;;
68010;SDS011;54794;48.348;7.878;2022-11-20T04:58:59;1.08;;;0.88;;
68010;SDS011;54794;48.348;7.878;2022-11-20T05:01:28;1.92;;;0.85;;
68010;SDS011;54794;48.348;7.878;2022-11-20T05:03:55;1.17;;;0.90;;
68010;SDS011;54794;48.348;7.878;2022-11-20T05:06:22;2.00;;;0.88;;
68010;SDS011;54794;48.348;7.878;2022-11-20T05:08:49;1.05;;;0.70;;
68010;SDS011;54794;48.348;7.878;2022-11-20T05:11:17;2.20;;;0.90;;
68010;SDS011;54794;48.348;7.878;2022-11-20T05:13:47;1.38;;;0.80;;
68010;SDS011;54794;48.348;7.878;2022-11-20T05:16:16;1.20;;;0.85;;
68010;SDS011;54794;48.348;7.878;2022-11-20T05:18:54;1.10;;;0.70;;
68010;SDS011;54794;48.348;7.878;2022-11-20T05:21:21;0.90;;;0.70;;
68010;SDS011;54794;48.348;7.878;2022-11-20T05:23:49;1.45;;;0.73;;
68010;SDS011;54794;48.348;7.878;2022-11-20T05:26:21;1.37;;;0.80;;
68010;SDS011;54794;48.348;7.878;2022-11-20T05:28:49;1.10;;;0.80;;
68010;SDS011;54794;48.348;7.878;2022-11-20T05:31:18;2.88;;;0.90;;
68010;SDS011;54794;48.348;7.878;2022-11-20T05:33:53;1.10;;;0.80;;
68010;SDS011;54794;48.348;7.878;2022-11-20T05:36:22;1.35;;;0.90;;
68010;SDS011;54794;48.348;7.878;2022-11-20T05:38:50;0.73;;;0.60;;
68010;SDS011;54794;48.348;7.878;2022-11-20T05:41:23;1.77;;;0.80;;
68010;SDS011;54794;48.348;7.878;2022-11-20T05:46:19;1.00;;;0.63;;
68010;SDS011;54794;48.348;7.878;2022-11-20T05:48:54;2.28;;;0.98;;
68010;SDS011;54794;48.348;7.878;2022-11-20T05:51:21;1.85;;;0.90;;
68010;SDS011;54794;48.348;7.878;2022-11-20T05:53:48;2.05;;;0.75;;
68010;SDS011;54794;48.348;7.878;2022-11-20T05:56:16;1.42;;;0.80;;
68010;SDS011;54794;48.348;7.878;2022-11-20T05:58:46;2.03;;;0.93;;
68010;SDS011;54794;48.348;7.878;2022-11-20T06:01:15;1.02;;;0.60;;
68010;SDS011;54794;48.348;7.878;2022-11-20T06:03:50;1.20;;;0.90;;
68010;SDS011;54794;48.348;7.878;2022-11-20T06:06:19;0.70;;;0.65;;
68010;SDS011;54794;48.348;7.878;2022-11-20T06:08:46;0.80;;;0.60;;
68010;SDS011;54794;48.348;7.878;2022-11-20T06:13:42;0.93;;;0.60;;
68010;SDS011;54794;48.348;7.878;2022-11-20T06:16:11;0.95;;;0.65;;
68010;SDS011;54794;48.348;7.878;2022-11-20T06:18:41;0.95;;;0.60;;
68010;SDS011;54794;48.348;7.878;2022-11-20T06:21:09;1.65;;;0.90;;
68010;SDS011;54794;48.348;7.878;2022-11-20T06:23:39;0.90;;;0.63;;
68010;SDS011;54794;48.348;7.878;2022-11-20T06:26:07;0.55;;;0.45;;
68010;SDS011;54794;48.348;7.878;2022-11-20T06:28:38;1.70;;;1.08;;
68010;SDS011;54794;48.348;7.878;2022-11-20T06:31:06;8.63;;;4.07;;
68010;SDS011;54794;48.348;7.878;2022-11-20T06:33:35;2.85;;;1.77;;
68010;SDS011;54794;48.348;7.878;2022-11-20T06:36:03;1.55;;;1.20;;
68010;SDS011;54794;48.348;7.878;2022-11-20T06:38:36;1.27;;;0.90;;
68010;SDS011;54794;48.348;7.878;2022-11-20T06:41:05;1.17;;;0.85;;
68010;SDS011;54794;48.348;7.878;2022-11-20T06:43:33;1.20;;;0.80;;
68010;SDS011;54794;48.348;7.878;2022-11-20T06:46:00;0.77;;;0.63;;
68010;SDS011;54794;48.348;7.878;2022-11-20T06:48:27;1.07;;;0.70;;
68010;SDS011;54794;48.348;7.878;2022-11-20T06:50:55;1.35;;;0.80;;
68010;SDS011;54794;48.348;7.878;2022-11-20T06:53:23;1.15;;;0.77;;
68010;SDS011;54794;48.348;7.878;2022-11-20T06:55:50;1.10;;;0.63;;
68010;SDS011;54794;48.348;7.878;2022-11-20T06:58:18;0.82;;;0.52;;
68010;SDS011;54794;48.348;7.878;2022-11-20T07:00:45;0.90;;;0.60;;
68010;SDS011;54794;48.348;7.878;2022-11-20T07:03:12;2.50;;;0.90;;
68010;SDS011;54794;48.348;7.878;2022-11-20T07:05:39;1.42;;;1.20;;
68010;SDS011;54794;48.348;7.878;2022-11-20T07:08:07;1.13;;;1.00;;
68010;SDS011;54794;48.348;7.878;2022-11-20T07:10:34;3.08;;;0.90;;
68010;SDS011;54794;48.348;7.878;2022-11-20T07:13:01;1.13;;;0.80;;
68010;SDS011;54794;48.348;7.878;2022-11-20T07:15:28;1.27;;;0.60;;
68010;SDS011;54794;48.348;7.878;2022-11-20T07:17:58;1.00;;;0.80;;
68010;SDS011;54794;48.348;7.878;2022-11-20T07:20:26;1.13;;;0.65;;
68010;SDS011;54794;48.348;7.878;2022-11-20T07:22:56;1.02;;;0.82;;
68010;SDS011;54794;48.348;7.878;2022-11-20T07:25:24;1.35;;;0.80;;
68010;SDS011;54794;48.348;7.878;2022-11-20T07:27:59;1.48;;;0.98;;
68010;SDS011;54794;48.348;7.878;2022-11-20T07:30:27;1.98;;;1.10;;
68010;SDS011;54794;48.348;7.878;2022-11-20T07:35:23;1.58;;;0.85;;
68010;SDS011;54794;48.348;7.878;2022-11-20T07:37:51;0.77;;;0.63;;
68010;SDS011;54794;48.348;7.878;2022-11-20T07:40:18;1.15;;;0.70;;
68010;SDS011;54794;48.348;7.878;2022-11-20T07:42:52;1.38;;;0.77;;
68010;SDS011;54794;48.348;7.878;2022-11-20T07:45:22;2.08;;;0.85;;
68010;SDS011;54794;48.348;7.878;2022-11-20T07:47:50;2.67;;;0.63;;
68010;SDS011;54794;48.348;7.878;2022-11-20T07:50:18;1.35;;;0.77;;
68010;SDS011;54794;48.348;7.878;2022-11-20T07:52:46;1.75;;;1.02;;
68010;SDS011;54794;48.348;7.878;2022-11-20T07:55:13;5.07;;;2.00;;
68010;SDS011;54794;48.348;7.878;2022-11-20T08:00:08;3.15;;;1.70;;
68010;SDS011;54794;48.348;7.878;2022-11-20T08:02:38;3.35;;;1.45;;
68010;SDS011;54794;48.348;7.878;2022-11-20T08:05:08;2.47;;;1.25;;
68010;SDS011;54794;48.348;7.878;2022-11-20T08:07:37;2.50;;;1.35;;
68010;SDS011;54794;48.348;7.878;2022-11-20T08:10:11;2.13;;;1.50;;
68010;SDS011;54794;48.348;7.878;2022-11-20T08:12:48;2.55;;;1.35;;
68010;SDS011;54794;48.348;7.878;2022-11-20T08:15:36;3.10;;;1.70;;
68010;SDS011;54794;48.348;7.878;2022-11-20T08:18:07;2.28;;;1.30;;
68010;SDS011;54794;48.348;7.878;2022-11-20T08:20:58;2.10;;;1.25;;
68010;SDS011;54794;48.348;7.878;2022-11-20T08:23:31;2.03;;;1.00;;
68010;SDS011;54794;48.348;7.878;2022-11-20T08:25:59;2.45;;;1.35;;
68010;SDS011;54794;48.348;7.878;2022-11-20T08:28:25;2.10;;;1.10;;
68010;SDS011;54794;48.348;7.878;2022-11-20T08:30:57;1.65;;;0.90;;
68010;SDS011;54794;48.348;7.878;2022-11-20T08:33:29;1.42;;;0.98;;
68010;SDS011;54794;48.348;7.878;2022-11-20T08:36:02;2.60;;;1.20;;
68010;SDS011;54794;48.348;7.878;2022-11-20T08:38:30;1.90;;;0.90;;
68010;SDS011;54794;48.348;7.878;2022-11-20T08:41:00;1.23;;;0.90;;
68010;SDS011;54794;48.348;7.878;2022-11-20T08:46:15;2.22;;;0.70;;
68010;SDS011;54794;48.348;7.878;2022-11-20T08:48:42;1.15;;;0.80;;
68010;SDS011;54794;48.348;7.878;2022-11-20T08:51:11;1.77;;;0.85;;
68010;SDS011;54794;48.348;7.878;2022-11-20T08:56:05;1.38;;;0.80;;
68010;SDS011;54794;48.348;7.878;2022-11-20T08:58:33;1.52;;;1.05;;
68010;SDS011;54794;48.348;7.878;2022-11-20T09:01:20;2.17;;;0.95;;
68010;SDS011;54794;48.348;7.878;2022-11-20T09:03:49;1.52;;;1.00;;
68010;SDS011;54794;48.348;7.878;2022-11-20T09:06:16;1.52;;;1.00;;
68010;SDS011;54794;48.348;7.878;2022-11-20T09:08:44;2.05;;;1.00;;
68010;SDS011;54794;48.348;7.878;2022-11-20T09:11:12;1.73;;;1.10;;
68010;SDS011;54794;48.348;7.878;2022-11-20T09:13:39;1.73;;;1.08;;
68010;SDS011;54794;48.348;7.878;2022-11-20T09:16:07;1.42;;;1.00;;
68010;SDS011;54794;48.348;7.878;2022-11-20T09:18:35;1.45;;;1.08;;
68010;SDS011;54794;48.348;7.878;2022-11-20T09:21:09;1.23;;;0.80;;
68010;SDS011;54794;48.348;7.878;2022-11-20T09:23:39;1.15;;;0.85;;
68010;SDS011;54794;48.348;7.878;2022-11-20T09:26:11;1.85;;;0.98;;
68010;SDS011;54794;48.348;7.878;2022-11-20T09:28:40;2.05;;;0.90;;
68010;SDS011;54794;48.348;7.878;2022-11-20T09:31:08;1.88;;;1.15;;
68010;SDS011;54794;48.348;7.878;2022-11-20T09:33:59;2.50;;;1.23;;
68010;SDS011;54794;48.348;7.878;2022-11-20T09:36:26;1.50;;;1.00;;
68010;SDS011;54794;48.348;7.878;2022-11-20T09:38:53;2.25;;;0.98;;
68010;SDS011;54794;48.348;7.878;2022-11-20T09:44:36;1.33;;;0.73;;
68010;SDS011;54794;48.348;7.878;2022-11-20T09:55:15;1.27;;;0.82;;
68010;SDS011;54794;48.348;7.878;2022-11-20T10:00:15;1.05;;;0.70;;
68010;SDS011;54794;48.348;7.878;2022-11-20T10:02:44;1.10;;;0.75;;
68010;SDS011;54794;48.348;7.878;2022-11-20T10:08:24;1.25;;;0.70;;
68010;SDS011;54794;48.348;7.878;2022-11-20T10:30:36;1.40;;;0.50;;
68010;SDS011;54794;48.348;7.878;2022-11-20T10:33:24;0.90;;;0.60;;
68010;SDS011;54794;48.348;7.878;2022-11-20T10:36:19;2.15;;;0.70;;
68010;SDS011;54794;48.348;7.878;2022-11-20T10:39:01;0.85;;;0.50;;
68010;SDS011;54794;48.348;7.878;2022-11-20T10:41:42;1.90;;;0.50;;
68010;SDS011;54794;48.348;7.878;2022-11-20T10:44:17;0.85;;;0.50;;
68010;SDS011;54794;48.348;7.878;2022-11-20T10:47:31;0.50;;;0.40;;
68010;SDS011;54794;48.348;7.878;2022-11-20T10:50:02;1.63;;;0.75;;
68010;SDS011;54794;48.348;7.878;2022-11-20T10:52:51;2.00;;;0.70;;
68010;SDS011;54794;48.348;7.878;2022-11-20T11:01:28;3.08;;;0.90;;
68010;SDS011;54794;48.348;7.878;2022-11-20T11:03:59;1.13;;;0.70;;
68010;SDS011;54794;48.348;7.878;2022-11-20T11:17:25;0.90;;;0.60;;
68010;SDS011;54794;48.348;7.878;2022-11-20T11:22:58;2.22;;;1.95;;
68010;SDS011;54794;48.348;7.878;2022-11-20T11:25:31;1.48;;;1.00;;
68010;SDS011;54794;48.348;7.878;2022-11-20T11:30:45;0.90;;;0.60;;
68010;SDS011;54794;48.348;7.878;2022-11-20T11:33:30;0.95;;;0.50;;
68010;SDS011;54794;48.348;7.878;2022-11-20T11:36:03;1.02;;;0.70;;
68010;SDS011;54794;48.348;7.878;2022-11-20T11:38:55;0.80;;;0.60;;
68010;SDS011;54794;48.348;7.878;2022-11-20T11:41:36;1.27;;;0.50;;
68010;SDS011;54794;48.348;7.878;2022-11-20T11:44:50;1.05;;;0.70;;
68010;SDS011;54794;48.348;7.878;2022-11-20T11:55:31;0.82;;;0.52;;
68010;SDS011;54794;48.348;7.878;2022-11-20T12:01:39;0.82;;;0.57;;
68010;SDS011;54794;48.348;7.878;2022-11-20T12:13:58;1.33;;;0.60;;
68010;SDS011;54794;48.348;7.878;2022-11-20T12:16:30;0.75;;;0.52;;
68010;SDS011;54794;48.348;7.878;2022-11-20T12:19:02;3.83;;;0.80;;
68010;SDS011;54794;48.348;7.878;2022-11-20T12:41:22;1.05;;;0.63;;
68010;SDS011;54794;48.348;7.878;2022-11-20T12:45:01;1.13;;;0.55;;
68010;SDS011;54794;48.348;7.878;2022-11-20T12:51:03;0.63;;;0.40;;
68010;SDS011;54794;48.348;7.878;2022-11-20T12:54:01;1.25;;;0.47;;
68010;SDS011;54794;48.348;7.878;2022-11-20T12:57:32;0.65;;;0.40;;
68010;SDS011;54794;48.348;7.878;2022-11-20T13:00:16;0.88;;;0.40;;
68010;SDS011;54794;48.348;7.878;2022-11-20T13:12:08;1.90;;;0.60;;
68010;SDS011;54794;48.348;7.878;2022-11-20T13:15:00;1.15;;;0.55;;
68010;SDS011;54794;48.348;7.878;2022-11-20T13:17:52;1.23;;;0.50;;
68010;SDS011;54794;48.348;7.878;2022-11-20T13:20:22;0.98;;;0.52;;
68010;SDS011;54794;48.348;7.878;2022-11-20T13:25:31;0.45;;;0.30;;
68010;SDS011;54794;48.348;7.878;2022-11-20T13:28:02;2.42;;;0.60;;
68010;SDS011;54794;48.348;7.878;2022-11-20T13:30:54;1.25;;;0.60;;
68010;SDS011;54794;48.348;7.878;2022-11-20T13:33:25;0.70;;;0.45;;
68010;SDS011;54794;48.348;7.878;2022-11-20T13:35:57;3.25;;;0.70;;
68010;SDS011;54794;48.348;7.878;2022-11-20T13:38:49;1.58;;;0.50;;
68010;SDS011;54794;48.348;7.878;2022-11-20T13:44:04;1.55;;;0.60;;
68010;SDS011;54794;48.348;7.878;2022-11-20T13:46:45;0.70;;;0.40;;
68010;SDS011;54794;48.348;7.878;2022-11-20T13:49:32;1.00;;;0.40;;
68010;SDS011;54794;48.348;7.878;2022-11-20T14:01:52;1.35;;;0.35;;
68010;SDS011;54794;48.348;7.878;2022-11-20T14:04:26;1.05;;;0.40;;
68010;SDS011;54794;48.348;7.878;2022-11-20T14:07:05;0.60;;;0.30;;
68010;SDS011;54794;48.348;7.878;2022-11-20T14:09:33;1.63;;;0.70;;
68010;SDS011;54794;48.348;7.878;2022-11-20T14:12:01;0.32;;;0.20;;
68010;SDS011;54794;48.348;7.878;2022-11-20T14:14:46;0.50;;;0.20;;
68010;SDS011;54794;48.348;7.878;2022-11-20T14:17:20;0.88;;;0.55;;
68010;SDS011;54794;48.348;7.878;2022-11-20T14:19:52;1.63;;;0.47;;
68010;SDS011;54794;48.348;7.878;2022-11-20T14:22:22;0.57;;;0.22;;
68010;SDS011;54794;48.348;7.878;2022-11-20T14:25:06;0.75;;;0.20;;
68010;SDS011;54794;48.348;7.878;2022-11-20T14:27:57;0.52;;;0.35;;
68010;SDS011;54794;48.348;7.878;2022-11-20T14:30:28;1.23;;;0.30;;
68010;SDS011;54794;48.348;7.878;2022-11-20T14:35:35;0.32;;;0.17;;
68010;SDS011;54794;48.348;7.878;2022-11-20T14:38:15;1.10;;;0.45;;
68010;SDS011;54794;48.348;7.878;2022-11-20T14:40:46;0.70;;;0.32;;
68010;SDS011;54794;48.348;7.878;2022-11-20T14:43:17;0.57;;;0.43;;
68010;SDS011;54794;48.348;7.878;2022-11-20T14:45:59;1.25;;;0.45;;
68010;SDS011;54794;48.348;7.878;2022-11-20T14:48:30;1.58;;;0.70;;
68010;SDS011;54794;48.348;7.878;2022-11-20T14:51:03;1.40;;;0.75;;
68010;SDS011;54794;48.348;7.878;2022-11-20T14:53:31;1.92;;;0.75;;
68010;SDS011;54794;48.348;7.878;2022-11-20T15:27:48;0.88;;;0.30;;
68010;SDS011;54794;48.348;7.878;2022-11-20T15:30:43;0.88;;;0.20;;
68010;SDS011;54794;48.348;7.878;2022-11-20T15:33:19;0.80;;;0.45;;
68010;SDS011;54794;48.348;7.878;2022-11-20T15:36:18;0.60;;;0.30;;
68010;SDS011;54794;48.348;7.878;2022-11-20T15:38:53;1.48;;;0.40;;
68010;SDS011;54794;48.348;7.878;2022-11-20T15:41:20;1.27;;;0.38;;
68010;SDS011;54794;48.348;7.878;2022-11-20T15:43:49;1.20;;;0.40;;
68010;SDS011;54794;48.348;7.878;2022-11-20T15:46:26;0.77;;;0.38;;
68010;SDS011;54794;48.348;7.878;2022-11-20T15:49:12;0.93;;;0.40;;
68010;SDS011;54794;48.348;7.878;2022-11-20T15:51:55;0.80;;;0.30;;
68010;SDS011;54794;48.348;7.878;2022-11-20T15:54:24;2.53;;;0.40;;
68010;SDS011;54794;48.348;7.878;2022-11-20T15:57:00;2.28;;;0.50;;
68010;SDS011;54794;48.348;7.878;2022-11-20T15:59:33;1.25;;;0.50;;
68010;SDS011;54794;48.348;7.878;2022-11-20T16:02:04;1.98;;;0.60;;
68010;SDS011;54794;48.348;7.878;2022-11-20T16:04:52;1.10;;;0.55;;
68010;SDS011;54794;48.348;7.878;2022-11-20T16:07:26;2.03;;;0.60;;
68010;SDS011;54794;48.348;7.878;2022-11-20T16:09:55;1.80;;;0.70;;
68010;SDS011;54794;48.348;7.878;2022-11-20T16:12:29;2.58;;;0.63;;
68010;SDS011;54794;48.348;7.878;2022-11-20T16:15:21;1.55;;;0.70;;
68010;SDS011;54794;48.348;7.878;2022-11-20T16:18:07;2.65;;;0.70;;
68010;SDS011;54794;48.348;7.878;2022-11-20T16:20:48;2.35;;;0.55;;
68010;SDS011;54794;48.348;7.878;2022-11-20T16:23:18;1.48;;;0.60;;
68010;SDS011;54794;48.348;7.878;2022-11-20T16:28:24;1.23;;;0.40;;
68010;SDS011;54794;48.348;7.878;2022-11-20T16:33:18;1.10;;;0.40;;
68010;SDS011;54794;48.348;7.878;2022-11-20T16:35:45;0.80;;;0.50;;
68010;SDS011;54794;48.348;7.878;2022-11-20T16:38:11;2.08;;;0.60;;
68010;SDS011;54794;48.348;7.878;2022-11-20T16:40:38;1.70;;;0.43;;
68010;SDS011;54794;48.348;7.878;2022-11-20T16:43:07;1.57;;;0.60;;
68010;SDS011;54794;48.348;7.878;2022-11-20T16:45:43;1.10;;;0.60;;
68010;SDS011;54794;48.348;7.878;2022-11-20T16:48:14;0.85;;;0.47;;
68010;SDS011;54794;48.348;7.878;2022-11-20T16:50:52;2.17;;;0.55;;
68010;SDS011;54794;48.348;7.878;2022-11-20T16:53:19;2.05;;;0.40;;
68010;SDS011;54794;48.348;7.878;2022-11-20T16:55:47;0.88;;;0.57;;
68010;SDS011;54794;48.348;7.878;2022-11-20T16:58:14;0.98;;;0.50;;
68010;SDS011;54794;48.348;7.878;2022-11-20T17:00:41;1.20;;;0.63;;
68010;SDS011;54794;48.348;7.878;2022-11-20T17:03:16;1.25;;;0.60;;
68010;SDS011;54794;48.348;7.878;2022-11-20T17:05:44;1.48;;;0.70;;
68010;SDS011;54794;48.348;7.878;2022-11-20T17:08:11;1.13;;;0.52;;
68010;SDS011;54794;48.348;7.878;2022-11-20T17:10:37;2.00;;;0.68;;
68010;SDS011;54794;48.348;7.878;2022-11-20T17:13:04;1.13;;;0.60;;
68010;SDS011;54794;48.348;7.878;2022-11-20T17:15:31;2.90;;;0.60;;
68010;SDS011;54794;48.348;7.878;2022-11-20T17:17:58;0.93;;;0.73;;
68010;SDS011;54794;48.348;7.878;2022-11-20T17:20:25;1.23;;;0.40;;
68010;SDS011;54794;48.348;7.878;2022-11-20T17:22:52;1.03;;;0.70;;
68010;SDS011;54794;48.348;7.878;2022-11-20T17:25:18;1.00;;;0.60;;
68010;SDS011;54794;48.348;7.878;2022-11-20T17:27:45;1.60;;;0.70;;
68010;SDS011;54794;48.348;7.878;2022-11-20T17:30:12;0.63;;;0.43;;
68010;SDS011;54794;48.348;7.878;2022-11-20T17:32:39;1.17;;;0.60;;
68010;SDS011;54794;48.348;7.878;2022-11-20T17:35:10;1.45;;;0.98;;
68010;SDS011;54794;48.348;7.878;2022-11-20T17:37:37;2.63;;;0.80;;
68010;SDS011;54794;48.348;7.878;2022-11-20T17:40:04;1.23;;;0.80;;
68010;SDS011;54794;48.348;7.878;2022-11-20T17:42:31;1.25;;;0.50;;
68010;SDS011;54794;48.348;7.878;2022-11-20T17:45:02;1.27;;;0.80;;
68010;SDS011;54794;48.348;7.878;2022-11-20T17:47:30;1.63;;;0.50;;
68010;SDS011;54794;48.348;7.878;2022-11-20T17:49:57;1.40;;;0.52;;
68010;SDS011;54794;48.348;7.878;2022-11-20T17:52:24;0.73;;;0.40;;
68010;SDS011;54794;48.348;7.878;2022-11-20T17:54:50;1.13;;;0.60;;
68010;SDS011;54794;48.348;7.878;2022-11-20T17:57:24;1.58;;;0.60;;
68010;SDS011;54794;48.348;7.878;2022-11-20T18:00:09;2.60;;;0.40;;
68010;SDS011;54794;48.348;7.878;2022-11-20T18:02:38;1.10;;;0.40;;
68010;SDS011;54794;48.348;7.878;2022-11-20T18:05:05;1.63;;;0.52;;
68010;SDS011;54794;48.348;7.878;2022-11-20T18:07:32;3.20;;;0.90;;
68010;SDS011;54794;48.348;7.878;2022-11-20T18:10:07;1.13;;;0.63;;
68010;SDS011;54794;48.348;7.878;2022-11-20T18:12:34;0.82;;;0.40;;
68010;SDS011;54794;48.348;7.878;2022-11-20T18:15:01;1.13;;;0.40;;
68010;SDS011;54794;48.348;7.878;2022-11-20T18:17:29;0.73;;;0.43;;
68010;SDS011;54794;48.348;7.878;2022-11-20T18:19:56;0.57;;;0.47;;
68010;SDS011;54794;48.348;7.878;2022-11-20T18:22:43;1.30;;;0.80;;
68010;SDS011;54794;48.348;7.878;2022-11-20T18:25:10;2.30;;;0.75;;
68010;SDS011;54794;48.348;7.878;2022-11-20T18:27:37;0.98;;;0.40;;
68010;SDS011;54794;48.348;7.878;2022-11-20T18:30:04;1.33;;;0.60;;
68010;SDS011;54794;48.348;7.878;2022-11-20T18:32:33;2.28;;;0.43;;